createdAt,value
2022-12-01T00:01:09.597Z,7.31
2022-12-01T00:03:36.285Z,7.32
2022-12-01T00:06:05.386Z,7.50
2022-12-01T00:08:33.228Z,7.74
2022-12-01T00:11:17.882Z,8.58
2022-12-01T00:13:44.362Z,8.02
2022-12-01T00:16:16.517Z,8.21
2022-12-01T00:18:43.868Z,8.10
2022-12-01T00:21:15.397Z,8.42
2022-12-01T00:23:50.811Z,8.25
2022-12-01T00:26:18.481Z,8.20
2022-12-01T00:28:48.802Z,8.37
2022-12-01T00:31:15.532Z,8.31
2022-12-01T00:33:42.014Z,7.24
2022-12-01T00:36:08.875Z,7.74
2022-12-01T00:38:35.528Z,8.12
2022-12-01T00:41:02.985Z,8.26
2022-12-01T00:43:29.635Z,7.75
2022-12-01T00:45:56.623Z,7.68
2022-12-01T00:48:24.030Z,7.78
2022-12-01T00:50:52.513Z,8.29
2022-12-01T00:53:19.504Z,8.27
2022-12-01T00:55:46.113Z,7.58
2022-12-01T00:58:12.746Z,7.63
2022-12-01T01:00:39.225Z,7.36
2022-12-01T01:03:09.057Z,7.75
2022-12-01T01:05:36.939Z,7.98
2022-12-01T01:08:07.557Z,7.77
2022-12-01T01:10:37.355Z,7.38
2022-12-01T01:13:03.826Z,7.42
2022-12-01T01:15:30.415Z,7.40
2022-12-01T01:17:56.863Z,7.45
2022-12-01T01:20:23.296Z,7.66
2022-12-01T01:22:49.806Z,7.28
2022-12-01T01:25:16.361Z,7.61
2022-12-01T01:27:42.879Z,7.75
2022-12-01T01:30:09.864Z,7.61
2022-12-01T01:32:36.410Z,7.91
2022-12-01T01:35:03.083Z,7.81
2022-12-01T01:37:29.677Z,7.72
2022-12-01T01:39:56.153Z,7.79
2022-12-01T01:42:22.704Z,7.49
2022-12-01T01:44:59.205Z,8.05
2022-12-01T01:47:30.791Z,7.72
2022-12-01T01:50:05.213Z,7.52
2022-12-01T01:52:33.468Z,7.34
2022-12-01T01:55:00.744Z,7.53
2022-12-01T01:57:30.982Z,7.97
2022-12-01T02:00:18.880Z,7.80
2022-12-01T02:02:47.113Z,7.63
2022-12-01T02:05:23.114Z,7.87
2022-12-01T02:07:51.548Z,8.09
2022-12-01T02:10:22.565Z,8.02
2022-12-01T02:13:15.852Z,7.76
2022-12-01T02:16:11.287Z,7.72
2022-12-01T02:19:08.933Z,7.89
2022-12-01T02:21:59.265Z,7.73
2022-12-01T02:24:34.792Z,7.78
2022-12-01T02:27:32.711Z,7.39
2022-12-01T02:30:14.231Z,7.72
2022-12-01T02:32:46.511Z,7.87
2022-12-01T02:35:22.090Z,7.83
2022-12-01T02:38:32.004Z,8.10
2022-12-01T02:41:07.780Z,8.46
2022-12-01T02:43:39.600Z,8.05
2022-12-01T02:46:15.844Z,8.11
2022-12-01T02:48:46.736Z,7.80
2022-12-01T02:51:19.799Z,7.85
2022-12-01T02:53:46.859Z,7.90
2022-12-01T02:56:15.883Z,8.17
2022-12-01T02:58:43.703Z,8.14
2022-12-01T03:01:43.092Z,8.40
2022-12-01T03:04:31.960Z,8.12
2022-12-01T03:07:35.314Z,7.87
2022-12-01T03:10:37.398Z,7.79
2022-12-01T03:13:03.885Z,7.97
2022-12-01T03:15:40.477Z,7.94
2022-12-01T03:18:24.385Z,7.80
2022-12-01T03:21:28.543Z,7.87
2022-12-01T03:24:01.098Z,7.39
2022-12-01T03:26:31.476Z,7.42
2022-12-01T03:29:03.498Z,7.62
2022-12-01T03:31:34.274Z,7.70
2022-12-01T03:34:07.352Z,7.31
2022-12-01T03:36:39.567Z,7.79
2022-12-01T03:39:11.845Z,7.80
2022-12-01T03:41:43.686Z,7.23
2022-12-01T03:44:19.853Z,7.66
2022-12-01T03:47:01.463Z,7.29
2022-12-01T03:49:28.959Z,7.09
2022-12-01T03:52:03.227Z,7.15
2022-12-01T03:55:05.058Z,7.28
2022-12-01T03:58:06.185Z,7.30
2022-12-01T04:00:33.290Z,7.24
2022-12-01T04:03:03.720Z,7.27
2022-12-01T04:05:32.827Z,7.49
2022-12-01T04:08:00.416Z,7.11
2022-12-01T04:10:27.133Z,7.12
2022-12-01T04:12:59.039Z,7.45
2022-12-01T04:15:26.480Z,7.72
2022-12-01T04:17:53.115Z,7.39
2022-12-01T04:20:19.679Z,7.38
2022-12-01T04:22:46.284Z,7.98
2022-12-01T04:25:12.801Z,7.92
2022-12-01T04:27:39.645Z,7.86
2022-12-01T04:30:07.650Z,7.66
2022-12-01T04:32:39.388Z,7.96
2022-12-01T04:35:07.202Z,7.72
2022-12-01T04:37:33.828Z,7.75
2022-12-01T04:40:00.290Z,7.72
2022-12-01T04:42:26.789Z,8.02
2022-12-01T04:44:53.241Z,7.69
2022-12-01T04:47:19.719Z,7.49
2022-12-01T04:49:46.394Z,7.34
2022-12-01T04:52:13.047Z,7.92
2022-12-01T04:54:39.561Z,7.86
2022-12-01T04:57:06.071Z,7.55
2022-12-01T04:59:32.691Z,7.81
2022-12-01T05:01:59.231Z,7.91
2022-12-01T05:04:26.029Z,8.07
2022-12-01T05:06:54.348Z,8.23
2022-12-01T05:09:21.312Z,8.03
2022-12-01T05:11:47.812Z,7.80
2022-12-01T05:14:14.331Z,7.48
2022-12-01T05:16:40.901Z,7.94
2022-12-01T05:19:25.915Z,7.63
2022-12-01T05:21:52.592Z,7.45
2022-12-01T05:24:20.347Z,7.77
2022-12-01T05:26:46.863Z,7.62
2022-12-01T05:29:13.701Z,7.62
2022-12-01T05:31:40.846Z,7.67
2022-12-01T05:34:08.001Z,7.93
2022-12-01T05:36:34.594Z,7.38
2022-12-01T05:39:01.165Z,7.69
2022-12-01T05:41:27.709Z,7.71
2022-12-01T05:43:54.220Z,7.99
2022-12-01T05:46:20.836Z,7.33
2022-12-01T05:48:47.447Z,7.36
2022-12-01T05:51:15.893Z,7.49
2022-12-01T05:53:43.321Z,7.90
2022-12-01T05:56:10.165Z,7.42
2022-12-01T05:58:37.094Z,7.31
2022-12-01T06:01:04.012Z,7.57
2022-12-01T06:03:30.474Z,7.33
2022-12-01T06:05:56.944Z,7.86
2022-12-01T06:08:23.565Z,7.44
2022-12-01T06:10:50.081Z,7.19
2022-12-01T06:13:16.627Z,7.48
2022-12-01T06:15:43.146Z,7.44
2022-12-01T06:18:09.802Z,7.87
2022-12-01T06:20:36.378Z,7.45
2022-12-01T06:23:03.319Z,7.98
2022-12-01T06:25:29.819Z,7.49
2022-12-01T06:27:59.666Z,7.35
2022-12-01T06:30:26.475Z,7.30
2022-12-01T06:32:53.015Z,7.05
2022-12-01T06:35:19.839Z,7.70
2022-12-01T06:37:46.295Z,7.36
2022-12-01T06:40:13.175Z,7.63
2022-12-01T06:42:39.759Z,7.37
2022-12-01T06:45:06.796Z,7.61
2022-12-01T06:47:33.314Z,7.32
2022-12-01T06:50:00.040Z,7.35
2022-12-01T06:52:26.645Z,7.45
2022-12-01T06:54:53.128Z,7.79
2022-12-01T06:57:19.921Z,7.89
2022-12-01T06:59:47.339Z,7.15
2022-12-01T07:02:14.354Z,7.20
2022-12-01T07:04:40.999Z,7.10
2022-12-01T07:07:07.872Z,7.23
2022-12-01T07:09:34.624Z,7.43
2022-12-01T07:12:01.211Z,7.64
2022-12-01T07:14:27.784Z,7.45
2022-12-01T07:16:54.719Z,6.76
2022-12-01T07:19:21.444Z,6.83
2022-12-01T07:21:48.080Z,7.16
2022-12-01T07:24:14.766Z,6.95
2022-12-01T07:26:41.581Z,7.08
2022-12-01T07:29:09.225Z,7.12
2022-12-01T07:31:36.790Z,7.29
2022-12-01T07:34:03.973Z,7.16
2022-12-01T07:36:30.670Z,6.71
2022-12-01T07:38:57.170Z,6.80
2022-12-01T07:41:24.402Z,6.92
2022-12-01T07:43:55.116Z,7.26
2022-12-01T07:46:24.678Z,6.96
2022-12-01T07:48:52.841Z,7.05
2022-12-01T07:51:20.691Z,6.74
2022-12-01T07:53:49.250Z,6.19
2022-12-01T07:56:16.604Z,6.53
2022-12-01T07:58:43.411Z,6.70
2022-12-01T08:01:12.579Z,6.72
2022-12-01T08:03:40.493Z,6.85
2022-12-01T08:06:07.968Z,7.01
2022-12-01T08:08:36.453Z,6.67
2022-12-01T08:11:06.079Z,6.98
2022-12-01T08:13:32.912Z,7.05
2022-12-01T08:15:59.611Z,6.74
2022-12-01T08:18:26.223Z,6.98
2022-12-01T08:20:57.307Z,6.69
2022-12-01T08:23:23.943Z,7.29
2022-12-01T08:25:52.466Z,7.14
2022-12-01T08:28:19.974Z,6.81
2022-12-01T08:30:47.056Z,6.71
2022-12-01T08:33:13.628Z,7.02
2022-12-01T08:35:40.234Z,7.05
2022-12-01T08:38:06.775Z,7.32
2022-12-01T08:40:33.363Z,7.30
2022-12-01T08:42:59.981Z,7.24
2022-12-01T08:45:26.527Z,7.38
2022-12-01T08:47:54.762Z,7.26
2022-12-01T08:50:21.268Z,6.95
2022-12-01T08:52:47.817Z,7.28
2022-12-01T08:55:14.349Z,7.44
2022-12-01T08:57:40.828Z,7.56
2022-12-01T09:00:07.922Z,7.24
2022-12-01T09:02:34.731Z,7.59
2022-12-01T09:05:01.543Z,7.70
2022-12-01T09:07:28.142Z,7.44
2022-12-01T09:09:54.755Z,7.81
2022-12-01T09:12:22.220Z,7.51
2022-12-01T09:14:49.622Z,7.19
2022-12-01T09:17:17.491Z,7.30
2022-12-01T09:19:44.464Z,7.28
2022-12-01T09:22:12.057Z,7.05
2022-12-01T09:24:38.881Z,7.14
2022-12-01T09:27:05.529Z,7.17
2022-12-01T09:29:32.507Z,7.47
2022-12-01T09:32:00.418Z,6.70
2022-12-01T09:34:27.622Z,7.17
2022-12-01T09:36:58.451Z,7.36
2022-12-01T09:39:25.427Z,7.22
2022-12-01T09:42:13.710Z,7.18
2022-12-01T09:44:47.623Z,7.49
2022-12-01T09:47:26.289Z,7.49
2022-12-01T09:50:04.586Z,7.57
2022-12-01T09:52:41.398Z,7.95
2022-12-01T09:55:16.491Z,7.79
2022-12-01T09:57:46.676Z,7.70
2022-12-01T10:00:42.762Z,7.28
2022-12-01T10:03:09.767Z,7.06
2022-12-01T10:06:10.177Z,7.26
2022-12-01T10:08:43.984Z,7.40
2022-12-01T10:11:24.488Z,7.42
2022-12-01T10:13:51.058Z,7.77
2022-12-01T10:16:25.586Z,7.70
2022-12-01T10:19:49.241Z,7.70
2022-12-01T10:22:53.770Z,7.97
2022-12-01T10:25:26.505Z,8.66
2022-12-01T10:28:40.647Z,9.51
2022-12-01T10:31:19.836Z,10.34
2022-12-01T10:34:13.153Z,9.90
2022-12-01T10:36:39.864Z,9.35
2022-12-01T10:39:07.338Z,8.60
2022-12-01T10:41:37.155Z,9.32
2022-12-01T10:44:05.593Z,8.42
2022-12-01T10:46:44.644Z,8.03
2022-12-01T10:49:13.839Z,8.73
2022-12-01T10:51:55.736Z,8.76
2022-12-01T10:54:25.322Z,8.16
2022-12-01T10:56:56.285Z,8.56
2022-12-01T10:59:22.738Z,8.69
2022-12-01T11:01:49.831Z,8.96
2022-12-01T11:04:45.609Z,8.47
2022-12-01T11:07:23.684Z,8.56
2022-12-01T11:10:31.826Z,8.74
2022-12-01T11:13:17.347Z,8.90
2022-12-01T11:16:01.930Z,8.50
2022-12-01T11:18:31.362Z,8.86
2022-12-01T11:21:11.962Z,8.55
2022-12-01T11:23:45.763Z,8.12
2022-12-01T11:26:14.525Z,8.28
2022-12-01T11:28:52.321Z,8.44
2022-12-01T11:31:20.533Z,8.53
2022-12-01T11:33:53.401Z,8.79
2022-12-01T11:36:29.307Z,8.63
2022-12-01T11:38:59.236Z,8.65
2022-12-01T11:41:40.777Z,9.29
2022-12-01T11:47:23.572Z,8.54
2022-12-01T11:49:59.658Z,8.00
2022-12-01T11:52:33.389Z,8.35
2022-12-01T11:55:09.785Z,8.66
2022-12-01T11:57:40.355Z,8.36
2022-12-01T12:00:54.914Z,8.43
2022-12-01T12:03:31.727Z,8.44
2022-12-01T12:06:39.577Z,9.33
2022-12-01T12:09:17.152Z,8.89
2022-12-01T12:11:55.279Z,8.69
2022-12-01T12:14:34.032Z,8.57
2022-12-01T12:17:21.726Z,8.78
2022-12-01T12:20:16.842Z,8.94
2022-12-01T12:22:55.466Z,9.26
2022-12-01T12:25:48.886Z,9.13
2022-12-01T12:28:27.793Z,9.39
2022-12-01T12:31:01.659Z,9.38
2022-12-01T12:33:47.566Z,10.42
2022-12-01T12:36:23.185Z,11.56
2022-12-01T12:39:17.910Z,10.44
2022-12-01T12:41:55.650Z,11.90
2022-12-01T12:44:57.492Z,10.01
2022-12-01T12:47:30.037Z,10.74
2022-12-01T12:50:21.015Z,10.94
2022-12-01T12:52:56.499Z,11.84
2022-12-01T12:55:39.764Z,10.65
2022-12-01T12:58:35.225Z,11.00
2022-12-01T13:01:09.118Z,10.68
2022-12-01T13:03:49.001Z,11.61
2022-12-01T13:06:27.882Z,11.57
2022-12-01T13:09:04.156Z,11.81
2022-12-01T13:11:37.124Z,10.80
2022-12-01T13:14:17.106Z,10.41
2022-12-01T13:16:47.519Z,10.11
2022-12-01T13:19:29.553Z,9.94
2022-12-01T13:21:56.902Z,9.43
2022-12-01T13:24:27.369Z,8.85
2022-12-01T13:27:02.916Z,8.77
2022-12-01T13:29:38.424Z,9.22
2022-12-01T13:32:26.520Z,9.28
2022-12-01T13:34:53.307Z,8.94
2022-12-01T13:37:28.018Z,8.95
2022-12-01T13:39:56.382Z,9.08
2022-12-01T13:42:27.106Z,9.88
2022-12-01T13:44:56.416Z,9.01
2022-12-01T13:47:22.938Z,9.17
2022-12-01T13:49:52.233Z,8.68
2022-12-01T13:52:21.714Z,8.68
2022-12-01T13:55:10.679Z,8.28
2022-12-01T13:57:37.178Z,8.89
2022-12-01T14:00:06.804Z,8.77
2022-12-01T14:02:36.099Z,9.02
2022-12-01T14:05:24.710Z,9.04
2022-12-01T14:07:52.551Z,8.92
2022-12-01T14:10:32.527Z,9.18
2022-12-01T14:13:03.241Z,8.93
2022-12-01T14:15:31.987Z,8.50
2022-12-01T14:18:24.991Z,8.92
2022-12-01T14:20:52.764Z,8.98
2022-12-01T14:23:28.841Z,8.75
2022-12-01T14:25:59.784Z,8.92
2022-12-01T14:29:00.703Z,8.55
2022-12-01T14:31:33.408Z,8.44
2022-12-01T14:34:03.623Z,8.58
2022-12-01T14:36:34.335Z,8.48
2022-12-01T14:39:06.207Z,8.12
2022-12-01T14:41:58.489Z,8.52
2022-12-01T14:44:35.168Z,8.02
2022-12-01T14:47:10.762Z,8.09
2022-12-01T14:49:58.216Z,8.06
2022-12-01T14:52:27.738Z,7.97
2022-12-01T14:54:58.458Z,8.28
2022-12-01T14:57:31.837Z,8.03
2022-12-01T15:00:10.961Z,8.21
2022-12-01T15:03:02.413Z,8.05
2022-12-01T15:05:31.203Z,7.74
2022-12-01T15:08:33.733Z,7.68
2022-12-01T15:10:56.575Z,7.75
2022-12-01T15:13:40.919Z,7.46
2022-12-01T15:16:17.615Z,7.50
2022-12-01T15:18:45.304Z,7.85
2022-12-01T15:21:13.454Z,7.85
2022-12-01T15:24:02.933Z,7.65
2022-12-01T15:26:45.151Z,7.22
2022-12-01T15:29:19.160Z,7.51
2022-12-01T15:31:49.425Z,7.46
2022-12-01T15:34:20.885Z,7.63
2022-12-01T15:36:48.434Z,7.42
2022-12-01T15:39:21.239Z,7.72
2022-12-01T15:41:53.802Z,7.26
2022-12-01T15:44:35.364Z,7.68
2022-12-01T15:47:30.908Z,7.60
2022-12-01T15:49:57.413Z,7.52
2022-12-01T15:52:23.911Z,8.01
2022-12-01T15:54:51.168Z,7.68
2022-12-01T15:57:20.458Z,7.28
2022-12-01T15:59:53.549Z,7.40
2022-12-01T16:02:20.066Z,7.06
2022-12-01T16:04:48.677Z,7.30
2022-12-01T16:07:15.596Z,7.28
2022-12-01T16:09:55.425Z,7.74
2022-12-01T16:12:23.739Z,7.89
2022-12-01T16:15:00.889Z,7.67
2022-12-01T16:17:40.160Z,7.63
2022-12-01T16:20:32.575Z,7.68
2022-12-01T16:23:02.298Z,7.82
2022-12-01T16:25:33.928Z,7.23
2022-12-01T16:28:01.429Z,7.71
2022-12-01T16:30:34.875Z,7.76
2022-12-01T16:33:17.007Z,8.01
2022-12-01T16:35:43.559Z,7.44
2022-12-01T16:38:16.087Z,6.90
2022-12-01T16:40:43.530Z,7.37
2022-12-01T16:43:29.293Z,7.30
2022-12-01T16:46:01.330Z,7.53
2022-12-01T16:48:27.926Z,7.62
2022-12-01T16:50:55.156Z,7.49
2022-12-01T16:53:21.826Z,7.55
2022-12-01T16:55:54.258Z,7.74
2022-12-01T16:58:21.216Z,7.51
2022-12-01T17:00:52.851Z,7.36
2022-12-01T17:03:25.440Z,7.25
2022-12-01T17:05:52.927Z,7.16
2022-12-01T17:08:20.422Z,7.06
2022-12-01T17:10:49.470Z,7.45
2022-12-01T17:13:16.558Z,7.23
2022-12-01T17:15:45.550Z,7.00
2022-12-01T17:18:13.122Z,7.18
2022-12-01T17:20:39.732Z,6.80
2022-12-01T17:23:06.449Z,7.17
2022-12-01T17:25:34.185Z,6.98
2022-12-01T17:28:01.119Z,7.82
2022-12-01T17:30:27.642Z,7.17
2022-12-01T17:32:54.156Z,6.94
2022-12-01T17:35:20.653Z,6.79
2022-12-01T17:37:47.157Z,7.18
2022-12-01T17:40:14.576Z,7.38
2022-12-01T17:42:45.571Z,6.91
2022-12-01T17:45:17.613Z,7.12
2022-12-01T17:47:44.272Z,6.92
2022-12-01T17:50:11.230Z,6.95
2022-12-01T17:52:37.775Z,6.95
2022-12-01T17:55:04.774Z,6.77
2022-12-01T17:57:31.317Z,6.68
2022-12-01T17:59:58.005Z,7.05
2022-12-01T18:02:24.633Z,6.85
2022-12-01T18:04:51.588Z,6.96
2022-12-01T18:07:18.404Z,6.65
2022-12-01T18:09:44.969Z,7.09
2022-12-01T18:12:11.917Z,7.03
2022-12-01T18:14:38.390Z,6.92
2022-12-01T18:17:05.502Z,6.89
2022-12-01T18:19:32.171Z,7.46
2022-12-01T18:21:58.707Z,7.03
2022-12-01T18:24:25.220Z,7.09
2022-12-01T18:26:54.193Z,7.14
2022-12-01T18:29:25.930Z,6.81
2022-12-01T18:31:54.713Z,6.77
2022-12-01T18:34:21.426Z,6.84
2022-12-01T18:36:48.153Z,7.16
2022-12-01T18:39:14.712Z,7.18
2022-12-01T18:41:41.334Z,6.96
2022-12-01T18:44:08.084Z,6.67
2022-12-01T18:46:35.100Z,6.91
2022-12-01T18:49:02.799Z,7.02
2022-12-01T18:51:31.353Z,7.05
2022-12-01T18:53:59.568Z,7.00
2022-12-01T18:56:26.748Z,6.74
2022-12-01T18:58:54.953Z,7.21
2022-12-01T19:01:28.172Z,6.95
2022-12-01T19:03:55.752Z,6.89
2022-12-01T19:06:23.583Z,7.31
2022-12-01T19:08:52.278Z,7.27
2022-12-01T19:11:19.813Z,7.01
2022-12-01T19:13:46.373Z,7.21
2022-12-01T19:16:15.354Z,6.97
2022-12-01T19:18:42.653Z,6.68
2022-12-01T19:21:11.240Z,7.12
2022-12-01T19:23:38.257Z,7.16
2022-12-01T19:26:06.642Z,7.19
2022-12-01T19:28:34.284Z,7.10
2022-12-01T19:31:08.878Z,7.39
2022-12-01T19:33:35.635Z,7.52
2022-12-01T19:36:14.629Z,7.54
2022-12-01T19:38:41.699Z,6.99
2022-12-01T19:41:09.183Z,6.93
2022-12-01T19:43:36.398Z,7.41
2022-12-01T19:46:12.362Z,6.87
2022-12-01T19:48:39.075Z,6.65
2022-12-01T19:51:05.842Z,6.76
2022-12-01T19:53:34.040Z,7.01
2022-12-01T19:56:02.686Z,6.85
2022-12-01T19:58:33.012Z,6.95
2022-12-01T20:01:08.708Z,6.79
2022-12-01T20:03:36.034Z,7.04
2022-12-01T20:06:09.004Z,6.79
2022-12-01T20:08:36.259Z,7.11
2022-12-01T20:11:04.212Z,6.94
2022-12-01T20:13:36.744Z,6.99
2022-12-01T20:16:05.495Z,7.10
2022-12-01T20:18:32.747Z,6.92
2022-12-01T20:21:08.320Z,6.83
2022-12-01T20:23:35.850Z,6.83
2022-12-01T20:26:05.009Z,6.69
2022-12-01T20:28:33.474Z,6.72
2022-12-01T20:31:03.037Z,6.78
2022-12-01T20:33:30.130Z,6.93
2022-12-01T20:35:56.833Z,7.23
2022-12-01T20:38:27.489Z,7.07
2022-12-01T20:40:54.302Z,7.01
2022-12-01T20:43:21.047Z,7.01
2022-12-01T20:45:47.804Z,6.47
2022-12-01T20:48:14.748Z,6.46
2022-12-01T20:50:41.562Z,6.69
2022-12-01T20:53:08.604Z,7.00
2022-12-01T20:55:36.852Z,6.66
2022-12-01T20:58:04.796Z,6.97
2022-12-01T21:00:34.773Z,6.78
2022-12-01T21:03:01.343Z,6.69
2022-12-01T21:05:27.980Z,7.13
2022-12-01T21:07:54.968Z,7.01
2022-12-01T21:10:21.573Z,6.87
2022-12-01T21:13:11.789Z,6.38
2022-12-01T21:15:54.102Z,6.71
2022-12-01T21:18:29.682Z,6.37
2022-12-01T21:21:04.698Z,6.54
2022-12-01T21:23:31.330Z,6.49
2022-12-01T21:25:57.827Z,6.65
2022-12-01T21:28:26.031Z,6.50
2022-12-01T21:31:18.664Z,6.44
2022-12-01T21:33:45.256Z,6.87
2022-12-01T21:36:18.017Z,6.47
2022-12-01T21:38:45.677Z,6.54
2022-12-01T21:41:23.619Z,6.52
2022-12-01T21:43:50.207Z,6.73
2022-12-01T21:46:18.451Z,6.50
2022-12-01T21:48:46.435Z,6.44
2022-12-01T21:51:25.457Z,6.81
2022-12-01T21:53:55.637Z,6.78
2022-12-01T21:56:25.665Z,6.69
2022-12-01T21:58:53.212Z,6.93
2022-12-01T22:01:31.863Z,6.99
2022-12-01T22:04:02.582Z,6.43
2022-12-01T22:06:35.821Z,6.58
2022-12-01T22:09:17.234Z,6.15
2022-12-01T22:11:55.995Z,6.44
2022-12-01T22:14:27.708Z,6.20
2022-12-01T22:17:17.823Z,6.47
2022-12-01T22:19:46.670Z,6.54
2022-12-01T22:22:15.552Z,6.56
2022-12-01T22:24:53.647Z,6.07
2022-12-01T22:27:31.044Z,6.20
2022-12-01T22:30:07.977Z,6.28
2022-12-01T22:32:47.186Z,6.26
2022-12-01T22:35:19.802Z,6.13
2022-12-01T22:37:49.809Z,6.06
2022-12-01T22:40:48.366Z,6.20
2022-12-01T22:43:17.725Z,6.26
2022-12-01T22:45:46.320Z,6.11
2022-12-01T22:48:37.504Z,6.29
2022-12-01T22:51:13.578Z,6.03
2022-12-01T22:53:41.322Z,6.26
2022-12-01T22:56:30.336Z,6.14
2022-12-01T22:58:57.036Z,5.76
2022-12-01T23:01:32.156Z,5.94
2022-12-01T23:04:13.389Z,5.61
2022-12-01T23:09:50.164Z,5.93
2022-12-01T23:12:25.617Z,5.72
2022-12-01T23:14:54.957Z,5.61
2022-12-01T23:17:30.652Z,5.89
2022-12-01T23:20:34.563Z,6.08
2022-12-01T23:23:04.551Z,6.00
2022-12-01T23:25:31.354Z,5.90
2022-12-01T23:28:00.848Z,6.11
2022-12-01T23:30:27.593Z,5.96
2022-12-01T23:33:05.814Z,6.09
2022-12-01T23:35:38.115Z,6.06
2022-12-01T23:38:05.261Z,5.83
2022-12-01T23:40:35.637Z,5.97
2022-12-01T23:43:37.332Z,5.98
2022-12-01T23:46:11.188Z,6.06
2022-12-01T23:48:41.375Z,5.85
2022-12-01T23:51:29.884Z,6.12
2022-12-01T23:53:58.341Z,6.28
2022-12-01T23:56:27.208Z,6.32
2022-12-01T23:58:55.886Z,6.07
